Time;durP1;ratioP1;P1;durP2;ratioP2;P2;SDS_P1;SDS_P2;PMS_P1;PMS_P2;Temp;Humidity;BMP_temperature;BMP_pressure;BME280_temperature;BME280_humidity;BME280_pressure;Samples;Min_cycle;Max_cycle;Signal;HPM_P1;HPM_P2
2021/12/15 00:01:14;;;;;;;30.77;6.80;;;4.80;93.80;;;;;;5064429;28;20490;-81
2021/12/15 00:03:39;;;;;;;15.95;6.18;;;4.80;93.90;;;;;;5054956;28;20040;-81
2021/12/15 00:06:11;;;;;;;19.15;6.95;;;4.80;93.90;;;;;;5048042;28;20024;-80
2021/12/15 00:08:37;;;;;;;22.77;6.30;;;4.80;93.90;;;;;;5034433;28;20038;-80
2021/12/15 00:11:02;;;;;;;11.75;6.53;;;4.80;93.90;;;;;;5058165;28;20032;-81
2021/12/15 00:13:28;;;;;;;28.02;7.93;;;4.80;93.90;;;;;;5042998;28;20082;-80
2021/12/15 00:15:54;;;;;;;11.52;6.03;;;4.80;93.90;;;;;;5031899;28;20064;-82
2021/12/15 00:18:19;;;;;;;11.88;5.40;;;4.80;93.90;;;;;;5064207;28;20534;-82
2021/12/15 00:20:45;;;;;;;16.00;5.63;;;4.80;93.90;;;;;;5049171;28;20956;-82
2021/12/15 00:23:10;;;;;;;29.88;6.53;;;4.80;93.90;;;;;;5050748;28;20056;-82
2021/12/15 00:25:37;;;;;;;26.50;5.72;;;4.80;93.90;;;;;;5022059;28;20445;-83
2021/12/15 00:28:03;;;;;;;36.65;9.13;;;4.80;93.90;;;;;;5046281;28;20461;-82
2021/12/15 00:30:28;;;;;;;19.58;6.55;;;4.80;94.00;;;;;;5044322;28;20043;-83
2021/12/15 00:32:54;;;;;;;11.52;6.65;;;4.80;94.00;;;;;;5045234;28;20032;-83
2021/12/15 00:35:20;;;;;;;14.45;6.43;;;4.80;94.00;;;;;;5044395;28;20048;-82
2021/12/15 00:37:45;;;;;;;11.23;5.35;;;4.80;94.00;;;;;;5043523;28;20583;-82
2021/12/15 00:40:13;;;;;;;10.95;5.25;;;4.80;94.00;;;;;;5056383;28;20115;-81
2021/12/15 00:42:38;;;;;;;12.48;5.75;;;4.80;94.00;;;;;;5026871;28;20770;-83
2021/12/15 00:45:05;;;;;;;13.07;5.95;;;4.80;94.00;;;;;;5054859;28;20038;-83
2021/12/15 00:47:30;;;;;;;12.90;6.60;;;4.90;94.10;;;;;;5038416;28;20036;-83
2021/12/15 00:49:56;;;;;;;16.60;6.32;;;4.90;94.10;;;;;;5044995;28;20104;-81
2021/12/15 00:52:21;;;;;;;16.45;7.20;;;4.90;94.10;;;;;;5045017;28;20515;-82
2021/12/15 00:54:47;;;;;;;13.75;6.50;;;4.90;94.10;;;;;;5054430;28;20100;-83
2021/12/15 00:57:12;;;;;;;22.25;7.03;;;4.90;94.10;;;;;;5050865;28;20506;-82
2021/12/15 00:59:38;;;;;;;24.73;7.85;;;4.90;94.10;;;;;;5032048;28;20027;-82
2021/12/15 01:02:04;;;;;;;25.30;8.27;;;5.00;94.10;;;;;;5050767;28;20047;-82
2021/12/15 01:04:30;;;;;;;19.73;7.95;;;5.00;94.10;;;;;;5063639;28;20037;-83
2021/12/15 01:07:00;;;;;;;18.55;7.15;;;5.00;94.10;;;;;;5066913;28;20123;-82
2021/12/15 01:09:32;;;;;;;21.65;7.65;;;5.00;94.20;;;;;;5060075;28;20035;-82
2021/12/15 01:19:51;;;;;;;12.40;6.20;;;5.00;94.20;;;;;;5051553;28;20093;-83
2021/12/15 01:22:32;;;;;;;35.08;8.73;;;5.00;94.20;;;;;;5052198;28;20043;-82
2021/12/15 01:25:10;;;;;;;26.10;7.82;;;5.00;94.20;;;;;;5050216;28;20048;-83
2021/12/15 01:27:36;;;;;;;30.00;7.85;;;5.10;94.20;;;;;;5056787;28;20040;-82
2021/12/15 01:30:03;;;;;;;30.35;8.38;;;5.00;94.20;;;;;;5047251;28;20032;-82
2021/12/15 01:32:29;;;;;;;19.63;7.47;;;5.10;94.20;;;;;;5049132;28;20434;-83
2021/12/15 01:34:54;;;;;;;18.95;7.35;;;5.10;94.20;;;;;;5069793;28;20934;-82
2021/12/15 01:37:20;;;;;;;31.33;8.95;;;5.10;94.30;;;;;;5055992;28;20504;-82
2021/12/15 01:39:46;;;;;;;39.53;9.07;;;5.10;94.20;;;;;;5052596;28;20035;-82
2021/12/15 01:42:11;;;;;;;22.17;8.15;;;5.10;94.30;;;;;;5010833;28;20506;-82
2021/12/15 01:47:21;;;;;;;17.92;7.88;;;5.20;94.30;;;;;;5063029;28;20067;-83
2021/12/15 01:49:49;;;;;;;16.23;7.85;;;5.10;94.30;;;;;;5047410;28;20499;-82
2021/12/15 01:52:29;;;;;;;16.23;7.57;;;5.10;94.30;;;;;;5018427;28;20049;-82
2021/12/15 01:55:07;;;;;;;20.00;7.93;;;5.20;94.30;;;;;;5047102;28;20039;-82
2021/12/15 01:57:34;;;;;;;19.35;8.38;;;5.20;94.30;;;;;;5034364;28;20033;-83
2021/12/15 01:59:59;;;;;;;18.48;7.45;;;5.10;94.20;;;;;;5048482;28;20054;-83
2021/12/15 02:02:25;;;;;;;16.25;7.70;;;5.20;94.30;;;;;;5064171;28;20056;-83
2021/12/15 02:04:51;;;;;;;18.52;7.78;;;5.20;94.30;;;;;;5063279;28;20032;-82
2021/12/15 02:07:17;;;;;;;15.57;7.28;;;5.20;94.30;;;;;;5034097;28;20063;-83
2021/12/15 02:12:21;;;;;;;13.00;6.38;;;5.20;94.30;;;;;;5042269;28;20048;-83
2021/12/15 02:14:46;;;;;;;10.43;5.85;;;5.20;94.30;;;;;;5057550;28;20039;-82
2021/12/15 02:17:12;;;;;;;13.20;6.75;;;5.20;94.30;;;;;;5047985;28;20395;-82
2021/12/15 02:19:38;;;;;;;9.85;5.68;;;5.20;94.60;;;;;;5038106;28;20021;-83
2021/12/15 02:22:04;;;;;;;10.43;5.22;;;5.20;94.30;;;;;;5047104;28;20036;-82
2021/12/15 02:24:29;;;;;;;12.32;5.47;;;5.20;94.30;;;;;;5069290;28;20039;-82
2021/12/15 02:26:59;;;;;;;8.90;5.28;;;5.20;94.30;;;;;;5043858;28;20041;-83
2021/12/15 02:29:25;;;;;;;9.52;5.13;;;5.20;94.30;;;;;;5032206;28;20529;-83
2021/12/15 02:32:02;;;;;;;8.63;5.25;;;5.20;94.20;;;;;;5049245;28;20047;-83
2021/12/15 02:39:30;;;;;;;9.68;4.85;;;5.20;94.20;;;;;;5022091;28;20056;-82
2021/12/15 02:41:55;;;;;;;10.35;5.55;;;5.20;94.20;;;;;;5050361;28;20075;-83
2021/12/15 02:44:21;;;;;;;10.70;4.90;;;5.20;94.20;;;;;;5059443;28;20028;-83
2021/12/15 02:46:48;;;;;;;10.43;5.63;;;5.10;94.20;;;;;;5075535;28;20518;-84
2021/12/15 02:49:15;;;;;;;10.65;5.78;;;5.20;94.20;;;;;;5049107;28;20453;-83
2021/12/15 02:51:42;;;;;;;9.73;5.05;;;5.20;94.20;;;;;;5069370;28;20054;-83
2021/12/15 02:54:08;;;;;;;11.35;5.93;;;5.20;94.20;;;;;;5059433;28;20033;-83
2021/12/15 02:56:34;;;;;;;9.52;5.00;;;5.20;94.20;;;;;;5058751;28;20094;-83
2021/12/15 02:59:03;;;;;;;10.05;5.30;;;5.20;94.20;;;;;;5039140;28;20039;-82
2021/12/15 03:01:39;;;;;;;10.73;5.63;;;5.10;94.20;;;;;;5040796;28;20172;-82
2021/12/15 03:06:44;;;;;;;8.68;5.30;;;5.20;94.20;;;;;;5049116;28;20037;-82
2021/12/15 03:17:08;;;;;;;9.68;5.22;;;5.20;94.20;;;;;;5054715;28;20171;-82
2021/12/15 03:19:35;;;;;;;9.95;5.53;;;5.20;94.20;;;;;;5049911;28;20562;-82
2021/12/15 03:22:00;;;;;;;12.68;6.50;;;5.20;94.20;;;;;;5051862;28;20036;-82
2021/12/15 03:24:27;;;;;;;11.13;5.95;;;5.20;94.20;;;;;;5059752;28;20415;-82
2021/12/15 03:27:02;;;;;;;9.32;5.15;;;5.20;94.30;;;;;;5056189;28;20035;-82
2021/12/15 03:35:06;;;;;;;10.07;5.13;;;5.30;94.30;;;;;;5049182;28;20044;-82
2021/12/15 03:37:35;;;;;;;8.45;4.88;;;5.30;94.60;;;;;;5048083;28;20044;-82
2021/12/15 03:40:10;;;;;;;7.50;4.60;;;5.20;94.20;;;;;;5049253;28;20129;-82
2021/12/15 03:42:39;;;;;;;8.80;5.32;;;5.30;94.30;;;;;;5035635;28;20104;-83
2021/12/15 03:45:08;;;;;;;8.25;5.07;;;5.30;94.30;;;;;;5060097;28;20436;-83
2021/12/15 03:47:35;;;;;;;10.05;5.25;;;5.20;94.20;;;;;;5052981;28;20044;-82
2021/12/15 03:50:03;;;;;;;11.10;6.10;;;5.30;94.30;;;;;;5054269;28;20037;-83
2021/12/15 03:52:29;;;;;;;8.63;4.97;;;5.30;94.30;;;;;;5047116;28;20094;-82
2021/12/15 03:54:54;;;;;;;9.85;5.78;;;5.30;94.30;;;;;;5047098;28;20036;-83
2021/12/15 03:57:21;;;;;;;10.40;5.75;;;5.20;94.20;;;;;;5039211;28;20029;-82
2021/12/15 03:59:46;;;;;;;10.23;5.70;;;5.30;94.60;;;;;;5046649;28;20024;-82
2021/12/15 04:02:14;;;;;;;8.85;5.18;;;5.30;94.30;;;;;;5038139;28;20037;-83
2021/12/15 04:04:40;;;;;;;12.00;5.70;;;5.30;94.30;;;;;;5054669;28;20026;-83
2021/12/15 04:07:06;;;;;;;10.55;4.88;;;5.30;94.30;;;;;;5035889;28;20024;-82
2021/12/15 04:09:31;;;;;;;9.73;4.75;;;5.30;94.30;;;;;;5032356;28;20067;-83
2021/12/15 04:11:58;;;;;;;10.35;5.20;;;5.30;94.30;;;;;;5030367;28;20036;-82
2021/12/15 04:14:28;;;;;;;9.73;5.40;;;5.30;94.30;;;;;;5046076;28;20458;-82
2021/12/15 04:17:00;;;;;;;9.80;4.90;;;5.30;94.30;;;;;;5040892;28;20111;-82
2021/12/15 04:19:26;;;;;;;10.40;5.03;;;5.30;94.30;;;;;;5055886;28;20029;-82
2021/12/15 04:21:52;;;;;;;6.28;3.95;;;5.30;94.20;;;;;;5053174;28;20032;-82
2021/12/15 04:24:18;;;;;;;8.85;4.95;;;5.30;94.20;;;;;;5049870;28;20399;-83
2021/12/15 04:26:45;;;;;;;8.45;5.07;;;5.30;94.20;;;;;;5080717;28;20509;-82
2021/12/15 04:29:11;;;;;;;10.82;5.43;;;5.30;94.20;;;;;;5030816;28;20382;-82
2021/12/15 04:31:41;;;;;;;13.27;6.20;;;5.30;94.20;;;;;;5058001;28;20517;-82
2021/12/15 04:34:08;;;;;;;10.20;5.60;;;5.30;94.20;;;;;;5062627;28;20061;-83
2021/12/15 04:36:36;;;;;;;13.93;5.88;;;5.30;94.20;;;;;;5040712;28;20047;-82
2021/12/15 04:39:03;;;;;;;13.57;6.35;;;5.30;94.20;;;;;;5044058;28;20053;-82
2021/12/15 04:41:29;;;;;;;11.93;5.47;;;5.30;94.20;;;;;;5036822;28;20028;-82
2021/12/15 04:43:59;;;;;;;11.48;5.10;;;5.30;94.20;;;;;;5054344;28;20059;-82
2021/12/15 04:46:30;;;;;;;15.40;6.70;;;5.30;94.20;;;;;;5038389;28;20112;-82
2021/12/15 04:48:55;;;;;;;14.35;6.13;;;5.30;94.20;;;;;;5062960;28;20033;-82
2021/12/15 04:51:21;;;;;;;13.27;6.30;;;5.30;94.20;;;;;;5056804;28;20897;-80
2021/12/15 04:53:47;;;;;;;17.55;6.95;;;5.40;94.30;;;;;;5045125;28;20037;-80
2021/12/15 04:56:13;;;;;;;10.68;4.60;;;5.30;94.20;;;;;;5040967;28;20512;-80
2021/12/15 04:58:39;;;;;;;11.55;5.70;;;5.30;94.30;;;;;;5057157;28;20108;-80
2021/12/15 05:01:07;;;;;;;11.55;5.10;;;5.30;94.30;;;;;;5040137;28;20107;-80
2021/12/15 05:03:32;;;;;;;13.05;6.43;;;5.30;94.40;;;;;;5057527;28;20086;-82
2021/12/15 05:05:58;;;;;;;13.35;6.20;;;5.30;94.20;;;;;;5065557;28;20032;-82
2021/12/15 05:08:23;;;;;;;14.15;6.35;;;5.30;94.20;;;;;;5062751;28;20115;-82
2021/12/15 05:10:50;;;;;;;15.20;7.07;;;5.30;94.20;;;;;;5047117;28;20056;-82
2021/12/15 05:13:16;;;;;;;10.70;5.43;;;5.40;94.30;;;;;;5038923;28;20033;-82
2021/12/15 05:15:42;;;;;;;11.82;5.40;;;5.40;94.30;;;;;;5054040;28;20406;-82
2021/12/15 05:18:07;;;;;;;12.80;6.00;;;5.40;94.30;;;;;;5071562;28;20049;-82
2021/12/15 05:20:39;;;;;;;12.68;6.07;;;5.40;94.30;;;;;;5058547;28;20058;-82
2021/12/15 05:23:05;;;;;;;13.00;6.60;;;5.40;94.30;;;;;;5047732;28;20033;-82
2021/12/15 05:25:31;;;;;;;14.25;6.80;;;5.40;94.30;;;;;;5045457;28;20275;-82
2021/12/15 05:27:56;;;;;;;14.60;6.78;;;5.40;94.30;;;;;;5043119;28;20036;-82
2021/12/15 05:30:22;;;;;;;14.23;6.60;;;5.40;94.30;;;;;;5042482;28;20036;-82
2021/12/15 05:32:47;;;;;;;9.65;4.88;;;5.40;94.30;;;;;;5042066;28;20051;-82
2021/12/15 05:35:20;;;;;;;12.43;6.80;;;5.40;94.30;;;;;;5031344;28;20160;-82
2021/12/15 05:37:46;;;;;;;16.98;6.63;;;5.40;94.30;;;;;;5031237;28;20033;-80
2021/12/15 05:40:11;;;;;;;10.95;5.15;;;5.40;94.20;;;;;;5029317;28;20042;-80
2021/12/15 05:42:37;;;;;;;10.80;5.75;;;5.40;94.30;;;;;;5048614;28;20056;-81
2021/12/15 05:45:03;;;;;;;12.55;5.97;;;5.40;94.30;;;;;;5025492;28;20131;-80
2021/12/15 05:47:28;;;;;;;12.23;5.57;;;5.40;94.30;;;;;;5051876;28;20037;-81
2021/12/15 05:49:55;;;;;;;16.02;7.20;;;5.40;94.30;;;;;;5044089;28;20039;-80
2021/12/15 05:52:21;;;;;;;15.35;6.88;;;5.40;94.20;;;;;;5034048;28;20047;-80
2021/12/15 05:54:46;;;;;;;14.85;6.95;;;5.40;94.20;;;;;;5042731;28;20041;-81
2021/12/15 05:57:12;;;;;;;10.93;5.45;;;5.40;94.20;;;;;;5019422;28;20067;-80
2021/12/15 05:59:37;;;;;;;13.05;6.53;;;5.40;94.30;;;;;;5053593;28;20083;-81
2021/12/15 06:02:04;;;;;;;14.15;6.95;;;5.40;94.30;;;;;;5042794;28;20032;-80
2021/12/15 06:04:29;;;;;;;14.60;7.03;;;5.40;94.30;;;;;;5015057;28;20034;-81
2021/12/15 06:06:55;;;;;;;13.68;6.38;;;5.40;94.30;;;;;;5041815;28;20112;-81
2021/12/15 06:09:21;;;;;;;14.55;7.00;;;5.40;94.30;;;;;;5019029;28;20062;-81
2021/12/15 06:11:52;;;;;;;12.82;6.13;;;5.40;94.30;;;;;;5025852;28;20033;-81
2021/12/15 06:14:23;;;;;;;12.15;6.07;;;5.40;94.30;;;;;;5063936;28;20067;-80
2021/12/15 06:16:50;;;;;;;15.48;7.80;;;5.40;94.30;;;;;;5049071;28;20038;-81
2021/12/15 06:19:16;;;;;;;18.65;9.68;;;5.40;94.30;;;;;;5054579;28;20495;-81
2021/12/15 06:21:41;;;;;;;15.90;8.18;;;5.40;94.30;;;;;;5035056;28;20037;-81
2021/12/15 06:24:07;;;;;;;15.52;8.30;;;5.40;94.30;;;;;;5045454;28;20033;-81
2021/12/15 06:26:34;;;;;;;16.50;8.85;;;5.40;94.30;;;;;;5037985;28;20043;-81
2021/12/15 06:28:59;;;;;;;17.92;8.25;;;5.40;94.30;;;;;;5059860;28;20043;-80
2021/12/15 06:31:25;;;;;;;14.25;7.50;;;5.40;94.30;;;;;;5049535;28;20230;-81
2021/12/15 06:33:50;;;;;;;14.05;7.32;;;5.40;94.30;;;;;;5024358;28;20032;-80
2021/12/15 06:36:20;;;;;;;14.40;6.97;;;5.40;94.30;;;;;;5028591;28;20040;-81
2021/12/15 06:38:46;;;;;;;14.00;7.10;;;5.40;94.30;;;;;;5018544;28;20534;-81
2021/12/15 06:41:12;;;;;;;16.35;7.80;;;5.40;94.30;;;;;;5029488;28;20136;-80
2021/12/15 06:43:39;;;;;;;19.95;8.00;;;5.40;94.30;;;;;;5011040;28;20044;-80
2021/12/15 06:46:42;;;;;;;14.20;6.68;;;5.50;94.30;;;;;;5008859;28;20035;-81
2021/12/15 07:00:00;;;;;;;13.00;6.68;;;5.50;94.30;;;;;;5019097;28;20037;-81
2021/12/15 07:02:27;;;;;;;15.35;7.25;;;5.50;94.30;;;;;;5004763;28;20120;-80
2021/12/15 07:04:52;;;;;;;13.73;7.13;;;5.50;94.30;;;;;;5008019;28;20394;-80
2021/12/15 07:07:18;;;;;;;13.10;6.53;;;5.50;94.30;;;;;;4998829;28;20041;-81
2021/12/15 07:09:43;;;;;;;11.63;6.05;;;5.50;94.40;;;;;;5025462;28;20040;-81
2021/12/15 07:12:09;;;;;;;11.90;6.38;;;5.50;94.30;;;;;;5016142;28;20035;-80
2021/12/15 07:14:35;;;;;;;14.65;7.90;;;5.50;94.40;;;;;;4996572;28;20033;-81
2021/12/15 07:17:02;;;;;;;17.38;9.07;;;5.50;94.40;;;;;;5000405;28;20102;-81
2021/12/15 07:19:34;;;;;;;18.50;9.45;;;5.50;94.40;;;;;;5006876;28;20031;-81
2021/12/15 07:22:28;;;;;;;17.30;9.55;;;5.50;94.30;;;;;;5008511;28;20460;-80
2021/12/15 07:24:47;;;;;;;19.60;9.90;;;5.50;94.30;;;;;;5024499;28;20030;-81
2021/12/15 07:27:13;;;;;;;17.60;10.38;;;5.50;94.30;;;;;;5023137;28;20051;-81
2021/12/15 07:29:38;;;;;;;18.98;10.55;;;5.50;94.30;;;;;;5012005;28;20045;-80
2021/12/15 07:32:04;;;;;;;16.52;8.80;;;5.50;94.30;;;;;;5049224;28;20544;-80
2021/12/15 07:34:30;;;;;;;13.80;7.30;;;5.50;94.30;;;;;;5052494;28;20517;-81
2021/12/15 07:36:55;;;;;;;18.30;7.32;;;5.50;94.40;;;;;;5031834;28;20032;-81
2021/12/15 07:39:21;;;;;;;12.25;6.47;;;5.50;94.40;;;;;;5045813;28;20036;-80
2021/12/15 07:41:52;;;;;;;11.02;6.30;;;5.60;94.40;;;;;;5029028;28;20249;-81
2021/12/15 07:44:19;;;;;;;20.95;9.95;;;5.60;94.40;;;;;;5050532;28;20035;-80
2021/12/15 07:46:45;;;;;;;17.08;9.43;;;5.60;94.40;;;;;;5027242;28;20033;-81
2021/12/15 07:49:11;;;;;;;17.05;9.32;;;5.60;94.40;;;;;;5060632;28;20044;-80
2021/12/15 07:51:36;;;;;;;16.88;8.60;;;5.60;94.40;;;;;;5056350;28;20501;-80
2021/12/15 07:54:02;;;;;;;16.00;6.97;;;5.60;94.40;;;;;;5052718;28;20112;-81
2021/12/15 07:56:28;;;;;;;15.48;7.68;;;5.60;94.40;;;;;;5031332;28;20048;-81
2021/12/15 07:58:53;;;;;;;14.18;7.55;;;5.60;94.40;;;;;;5012161;28;20514;-81
2021/12/15 08:01:20;;;;;;;16.10;8.43;;;5.60;94.40;;;;;;5042335;28;20048;-81
2021/12/15 08:03:51;;;;;;;16.27;7.63;;;5.60;94.40;;;;;;5064130;28;20537;-80
2021/12/15 08:06:17;;;;;;;16.63;8.27;;;5.60;94.40;;;;;;5060295;28;20067;-80
2021/12/15 08:08:42;;;;;;;21.25;12.18;;;5.70;94.40;;;;;;5039706;28;20501;-80
2021/12/15 08:11:08;;;;;;;26.65;12.68;;;5.60;94.40;;;;;;5036932;28;20043;-80
2021/12/15 08:13:35;;;;;;;28.92;15.30;;;5.70;94.40;;;;;;5039373;28;20036;-80
2021/12/15 08:16:00;;;;;;;32.45;17.25;;;5.70;94.40;;;;;;5017558;28;20126;-80
2021/12/15 08:18:26;;;;;;;31.77;16.13;;;5.70;94.40;;;;;;5046075;28;20070;-81
2021/12/15 08:20:51;;;;;;;24.33;12.70;;;5.70;94.40;;;;;;5048979;28;20379;-80
2021/12/15 08:23:17;;;;;;;21.63;10.40;;;5.70;94.40;;;;;;5042700;28;20047;-80
2021/12/15 08:25:43;;;;;;;18.33;10.60;;;5.70;94.40;;;;;;5058770;28;20115;-81
2021/12/15 08:28:09;;;;;;;29.27;15.35;;;5.80;94.40;;;;;;5065568;28;20058;-80
2021/12/15 08:30:34;;;;;;;27.45;15.65;;;5.80;94.40;;;;;;5061255;28;24963;-80
2021/12/15 08:33:04;;;;;;;30.05;16.05;;;5.80;94.40;;;;;;5049693;28;20062;-81
2021/12/15 08:35:35;;;;;;;27.45;15.38;;;5.80;94.40;;;;;;5028132;28;20513;-80
2021/12/15 08:38:01;;;;;;;;;;;5.80;94.40;;;;;;5049849;28;20033;-80
2021/12/15 08:40:27;;;;;;;21.48;12.25;;;5.80;94.40;;;;;;5033679;28;20385;-81
2021/12/15 08:42:53;;;;;;;19.08;10.60;;;5.90;94.40;;;;;;5026621;28;20032;-81
2021/12/15 08:45:18;;;;;;;16.05;8.50;;;5.90;94.70;;;;;;5028220;28;20142;-81
2021/12/15 08:47:44;;;;;;;14.25;7.80;;;5.90;94.40;;;;;;5042746;28;20045;-80
2021/12/15 08:50:12;;;;;;;31.20;13.95;;;5.90;94.40;;;;;;5064629;28;20037;-80
2021/12/15 08:52:38;;;;;;;23.52;12.70;;;5.90;94.40;;;;;;5026484;28;20520;-81
2021/12/15 08:55:05;;;;;;;24.33;13.93;;;6.00;94.50;;;;;;5038908;28;20037;-80
2021/12/15 08:57:31;;;;;;;22.60;11.07;;;6.00;94.40;;;;;;5032638;28;20407;-82
2021/12/15 08:59:56;;;;;;;19.30;10.73;;;6.00;94.40;;;;;;5039619;28;20028;-81
2021/12/15 09:02:22;;;;;;;21.60;12.18;;;6.00;94.40;;;;;;5064248;28;20033;-81
2021/12/15 09:04:47;;;;;;;22.17;12.55;;;6.10;94.40;;;;;;5065362;28;20032;-80
2021/12/15 09:07:14;;;;;;;21.50;11.65;;;6.10;94.40;;;;;;5033953;28;20425;-80
2021/12/15 09:09:40;;;;;;;18.55;10.32;;;6.20;94.40;;;;;;5048781;28;20032;-80
2021/12/15 09:12:06;;;;;;;15.98;9.23;;;6.10;94.40;;;;;;5049439;28;20329;-81
2021/12/15 09:14:32;;;;;;;15.60;8.90;;;6.20;94.40;;;;;;5058855;28;20104;-80
2021/12/15 09:16:58;;;;;;;16.63;8.70;;;6.20;94.40;;;;;;5057862;28;20158;-81
2021/12/15 09:19:24;;;;;;;15.20;8.52;;;6.20;94.40;;;;;;5047809;28;20028;-81
2021/12/15 09:21:51;;;;;;;16.13;9.10;;;6.20;94.40;;;;;;5039188;28;20645;-81
2021/12/15 09:24:17;;;;;;;17.35;9.18;;;6.20;94.40;;;;;;5073089;28;20041;-80
2021/12/15 09:26:43;;;;;;;19.42;9.25;;;6.30;94.50;;;;;;5061253;28;20040;-81
2021/12/15 09:29:08;;;;;;;16.85;9.18;;;6.30;94.50;;;;;;5059057;28;20032;-80
2021/12/15 09:31:34;;;;;;;15.82;8.57;;;6.40;94.50;;;;;;5020775;28;20063;-81
2021/12/15 09:34:01;;;;;;;20.70;9.45;;;6.30;94.40;;;;;;5054782;28;20363;-80
2021/12/15 09:36:26;;;;;;;23.08;9.48;;;6.40;94.50;;;;;;5025331;28;20052;-82
2021/12/15 09:38:55;;;;;;;20.30;10.25;;;6.40;94.50;;;;;;5025343;28;20089;-81
2021/12/15 09:41:21;;;;;;;17.98;9.27;;;6.40;94.50;;;;;;5035568;28;20043;-81
2021/12/15 09:43:48;;;;;;;18.60;9.50;;;6.50;94.40;;;;;;5031742;28;20032;-81
2021/12/15 09:46:30;;;;;;;16.20;8.40;;;6.50;94.50;;;;;;5045530;28;20043;-81
2021/12/15 10:18:27;;;;;;;15.23;7.45;;;7.00;94.50;;;;;;5050659;28;20044;-81
2021/12/15 10:20:52;;;;;;;14.80;7.30;;;7.10;94.50;;;;;;5068539;28;20024;-80
2021/12/15 10:23:24;;;;;;;16.25;8.15;;;7.10;94.40;;;;;;5047411;28;20039;-80
2021/12/15 10:25:53;;;;;;;12.38;6.88;;;7.20;94.40;;;;;;5021300;28;20622;-80
2021/12/15 10:28:24;;;;;;;12.07;6.97;;;7.20;94.40;;;;;;5040168;28;20040;-80
2021/12/15 10:31:01;;;;;;;12.40;6.97;;;7.30;94.40;;;;;;5022213;28;20032;-80
2021/12/15 10:33:33;;;;;;;14.20;7.35;;;7.30;94.30;;;;;;5071596;28;20037;-80
2021/12/15 10:36:01;;;;;;;12.23;7.15;;;7.40;94.30;;;;;;5042774;28;20524;-81
2021/12/15 10:38:30;;;;;;;11.02;6.32;;;7.40;94.30;;;;;;5075414;28;20040;-80
2021/12/15 10:41:16;;;;;;;8.90;5.50;;;7.40;94.20;;;;;;5047282;28;20037;-81
2021/12/15 10:43:45;;;;;;;9.85;5.60;;;7.50;94.20;;;;;;5068439;28;20043;-81
2021/12/15 10:46:20;;;;;;;12.18;6.43;;;7.50;94.20;;;;;;5053002;28;20036;-80
2021/12/15 10:48:58;;;;;;;9.35;5.90;;;7.60;94.20;;;;;;5067959;28;20029;-80
2021/12/15 10:51:31;;;;;;;9.65;5.63;;;7.60;94.20;;;;;;5031979;28;20314;-80
2021/12/15 10:53:59;;;;;;;8.52;5.57;;;7.60;94.10;;;;;;5084252;28;20676;-80
2021/12/15 10:56:27;;;;;;;8.63;5.32;;;7.60;94.10;;;;;;5058446;28;20589;-81
2021/12/15 10:58:54;;;;;;;10.55;5.82;;;7.70;94.10;;;;;;5043413;28;20032;-80
2021/12/15 11:01:45;;;;;;;7.38;4.85;;;7.70;94.10;;;;;;5047694;28;20528;-80
2021/12/15 11:04:20;;;;;;;11.13;6.47;;;7.70;94.00;;;;;;5058113;28;20043;-81
2021/12/15 11:06:46;;;;;;;8.60;5.57;;;7.70;94.00;;;;;;5069594;28;20037;-81
2021/12/15 11:09:20;;;;;;;14.05;5.80;;;7.80;94.00;;;;;;5061576;28;20032;-81
2021/12/15 11:12:26;;;;;;;9.68;5.93;;;7.80;94.00;;;;;;5057904;28;20036;-80
2021/12/15 11:14:59;;;;;;;9.80;5.47;;;7.80;94.20;;;;;;5047173;28;20023;-80
2021/12/15 11:17:30;;;;;;;9.90;5.50;;;7.80;93.90;;;;;;5065824;28;20487;-81
2021/12/15 11:20:01;;;;;;;10.07;6.45;;;7.90;94.20;;;;;;5046401;28;20065;-81
2021/12/15 11:22:36;;;;;;;9.18;5.20;;;7.90;93.90;;;;;;5058760;28;20082;-81
2021/12/15 11:25:23;;;;;;;11.13;5.93;;;7.90;93.80;;;;;;5063305;28;20112;-81
2021/12/15 11:27:51;;;;;;;11.82;5.40;;;8.00;93.80;;;;;;5060487;28;20054;-81
2021/12/15 11:30:24;;;;;;;9.63;6.20;;;7.90;93.80;;;;;;5043647;28;20040;-81
2021/12/15 11:32:50;;;;;;;9.38;4.88;;;8.00;93.80;;;;;;5079370;28;20037;-80
2021/12/15 11:35:17;;;;;;;9.38;5.68;;;8.00;93.80;;;;;;5034564;28;20036;-81
2021/12/15 11:37:57;;;;;;;10.93;7.05;;;8.10;93.70;;;;;;5071304;28;20109;-81
2021/12/15 11:40:38;;;;;;;15.45;7.05;;;8.20;93.70;;;;;;5043125;28;20033;-81
2021/12/15 11:43:04;;;;;;;10.02;6.30;;;8.20;93.60;;;;;;5022631;28;20618;-81
2021/12/15 11:45:30;;;;;;;8.05;5.72;;;8.20;93.60;;;;;;5040806;28;20056;-80
2021/12/15 11:48:19;;;;;;;8.02;5.18;;;8.30;93.50;;;;;;5041308;28;20140;-80
2021/12/15 11:50:46;;;;;;;8.85;5.40;;;8.30;93.50;;;;;;5049769;28;20040;-81
2021/12/15 11:53:28;;;;;;;6.82;4.68;;;8.30;93.40;;;;;;5038002;28;20040;-81
2021/12/15 11:55:54;;;;;;;9.98;6.22;;;8.30;93.40;;;;;;5040475;28;20072;-81
2021/12/15 11:58:30;;;;;;;10.75;6.00;;;8.40;93.40;;;;;;5039110;28;20336;-81
2021/12/15 12:00:55;;;;;;;5.65;3.85;;;8.40;93.40;;;;;;5048152;28;20040;-81
2021/12/15 12:03:21;;;;;;;5.32;4.10;;;8.50;93.70;;;;;;5042495;28;20037;-81
2021/12/15 12:05:47;;;;;;;8.00;4.60;;;8.50;93.30;;;;;;5035077;28;20056;-80
2021/12/15 12:08:12;;;;;;;8.43;5.43;;;8.50;93.20;;;;;;5030853;28;20689;-81
2021/12/15 12:10:48;;;;;;;10.13;5.97;;;8.50;93.20;;;;;;5030089;28;20037;-80
2021/12/15 12:13:23;;;;;;;7.05;4.68;;;8.50;93.20;;;;;;5033529;28;20032;-81
2021/12/15 12:15:54;;;;;;;9.98;6.68;;;8.60;93.20;;;;;;5060221;28;20064;-80
2021/12/15 12:18:22;;;;;;;8.23;5.95;;;8.60;93.20;;;;;;5027761;28;20052;-81
2021/12/15 12:20:53;;;;;;;7.10;5.10;;;8.60;93.20;;;;;;5043631;28;20044;-81
2021/12/15 12:23:20;;;;;;;8.70;5.53;;;8.60;93.10;;;;;;5021113;28;20079;-82
2021/12/15 12:25:48;;;;;;;11.68;7.03;;;8.70;93.10;;;;;;5040469;28;20048;-80
2021/12/15 12:28:25;;;;;;;8.48;5.80;;;8.70;93.10;;;;;;5034843;28;20117;-81
2021/12/15 12:30:55;;;;;;;7.20;4.85;;;8.80;93.10;;;;;;5075519;28;20221;-80
2021/12/15 12:33:22;;;;;;;6.68;4.53;;;8.80;93.00;;;;;;5040137;28;20071;-80
2021/12/15 12:35:50;;;;;;;6.43;4.32;;;8.80;93.00;;;;;;5032732;28;20048;-82
2021/12/15 12:38:21;;;;;;;8.27;4.97;;;8.90;93.00;;;;;;5034083;28;20039;-80
2021/12/15 12:41:13;;;;;;;7.85;5.53;;;8.90;92.90;;;;;;5058851;28;20040;-80
2021/12/15 12:43:47;;;;;;;6.82;4.35;;;8.90;92.80;;;;;;5082935;28;20544;-80
2021/12/15 12:46:50;;;;;;;6.55;4.35;;;8.90;92.80;;;;;;5037348;28;20486;-81
2021/12/15 13:00:57;;;;;;;6.55;4.60;;;8.90;92.60;;;;;;5052565;28;20558;-80
2021/12/15 13:03:34;;;;;;;8.50;5.15;;;9.00;92.70;;;;;;5018348;28;20083;-81
2021/12/15 13:06:16;;;;;;;8.18;6.32;;;8.90;92.60;;;;;;5030104;28;20530;-81
2021/12/15 13:08:43;;;;;;;6.75;5.50;;;8.90;92.50;;;;;;5047241;28;20029;-82
2021/12/15 13:11:21;;;;;;;7.20;4.80;;;8.90;92.60;;;;;;5054957;28;20548;-81
2021/12/15 13:14:01;;;;;;;7.20;4.13;;;8.90;92.50;;;;;;5071263;28;20060;-82
2021/12/15 13:16:53;;;;;;;6.20;4.63;;;8.90;92.50;;;;;;5069448;28;20602;-81
2021/12/15 13:19:31;;;;;;;;;;;8.90;92.50;;;;;;5052375;28;20093;-81
2021/12/15 13:30:46;;;;;;;9.57;6.20;;;8.90;92.50;;;;;;5042750;28;20039;-81
2021/12/15 13:33:24;;;;;;;8.02;5.45;;;8.90;92.50;;;;;;5020513;28;20056;-81
2021/12/15 13:35:52;;;;;;;7.95;5.55;;;8.90;92.50;;;;;;5049765;28;20036;-81
2021/12/15 13:38:31;;;;;;;8.68;6.20;;;8.90;92.40;;;;;;5048676;28;20032;-81
2021/12/15 13:41:03;;;;;;;8.60;5.40;;;8.90;92.40;;;;;;5047239;28;20123;-80
2021/12/15 13:43:48;;;;;;;6.70;4.90;;;8.90;92.30;;;;;;5053607;28;20033;-82
2021/12/15 13:46:39;;;;;;;7.45;5.00;;;9.00;92.30;;;;;;5043630;28;20048;-80
2021/12/15 13:49:26;;;;;;;8.93;4.97;;;9.00;92.30;;;;;;5033212;28;20028;-82
2021/12/15 13:51:59;;;;;;;6.03;4.55;;;9.00;92.30;;;;;;5060363;28;20048;-81
2021/12/15 13:54:35;;;;;;;7.07;5.00;;;9.00;92.30;;;;;;5053433;28;20045;-80
2021/12/15 13:57:01;;;;;;;7.03;5.60;;;9.00;92.30;;;;;;5067471;28;20028;-81
2021/12/15 13:59:37;;;;;;;7.60;4.78;;;8.90;92.20;;;;;;5046697;28;20043;-81
2021/12/15 14:02:22;;;;;;;8.80;5.15;;;8.90;92.20;;;;;;5043300;28;20033;-80
2021/12/15 14:05:08;;;;;;;7.03;5.03;;;9.00;92.20;;;;;;5043596;28;20044;-81
2021/12/15 14:07:35;;;;;;;7.55;5.05;;;8.90;92.20;;;;;;5051351;28;20095;-82
2021/12/15 14:10:12;;;;;;;8.20;5.03;;;8.90;92.20;;;;;;5020695;28;20029;-81
2021/12/15 14:12:49;;;;;;;7.65;5.18;;;8.90;92.20;;;;;;5044666;28;20069;-82
2021/12/15 14:15:27;;;;;;;8.57;5.53;;;8.90;92.20;;;;;;5078059;28;20039;-83
2021/12/15 14:18:16;;;;;;;9.85;5.88;;;8.80;92.10;;;;;;5022814;28;20025;-83
2021/12/15 14:20:43;;;;;;;7.95;5.57;;;8.80;92.10;;;;;;5054010;28;20032;-83
2021/12/15 14:23:11;;;;;;;10.55;5.07;;;8.80;92.20;;;;;;5022985;28;20052;-82
2021/12/15 14:25:37;;;;;;;7.78;5.38;;;8.80;92.20;;;;;;5043367;28;20035;-83
2021/12/15 14:28:26;;;;;;;7.88;5.55;;;8.80;92.20;;;;;;5042802;28;20029;-82
2021/12/15 14:30:58;;;;;;;8.13;5.10;;;8.80;92.10;;;;;;5066139;28;20518;-82
2021/12/15 14:33:33;;;;;;;7.35;4.80;;;8.80;92.10;;;;;;5045624;28;20046;-83
2021/12/15 14:36:06;;;;;;;9.13;6.25;;;8.80;92.10;;;;;;5078933;28;20454;-82